Time;durP1;ratioP1;P1;durP2;ratioP2;P2;SDS_P1;SDS_P2;PMS_P1;PMS_P2;Temp;Humidity;BMP_temperature;BMP_pressure;BME280_temperature;BME280_humidity;BME280_pressure;Samples;Min_cycle;Max_cycle;Signal;HPM_P1;HPM_P2
2021/01/25 00:01:24;;;;;;;13.20;8.63;;;;;;;2.85;93.02;100022.70;1590131;90;21031;-32
2021/01/25 00:03:52;;;;;;;13.25;7.83;;;;;;;2.87;93.01;100028.68;1590106;90;21302;-33
2021/01/25 00:06:21;;;;;;;12.53;8.13;;;;;;;2.83;93.00;100021.84;1590080;90;20980;-34
2021/01/25 00:08:50;;;;;;;12.58;8.25;;;;;;;2.81;93.03;100026.09;1590137;90;20952;-34
2021/01/25 00:11:19;;;;;;;18.25;8.83;;;;;;;2.81;92.96;100022.70;1590064;89;20944;-34
2021/01/25 00:13:48;;;;;;;14.18;8.45;;;;;;;2.79;92.97;100021.84;1590214;89;21039;-35
2021/01/25 00:16:17;;;;;;;13.83;7.97;;;;;;;2.78;92.99;100014.58;1590191;90;21417;-34
2021/01/25 00:18:47;;;;;;;16.67;7.60;;;;;;;2.78;93.00;100019.69;1590083;90;21056;-34
2021/01/25 00:21:17;;;;;;;14.33;8.38;;;;;;;2.77;93.04;100016.70;1568956;90;21565;-34
2021/01/25 00:23:46;;;;;;;13.80;8.30;;;;;;;2.78;93.09;100009.86;1590165;89;21567;-34
2021/01/25 00:26:14;;;;;;;12.80;8.15;;;;;;;2.78;93.11;100018.41;1590189;90;21020;-33
2021/01/25 00:28:42;;;;;;;11.80;7.90;;;;;;;2.77;93.14;100019.25;1590016;89;21230;-32
2021/01/25 00:31:10;;;;;;;15.38;9.00;;;;;;;2.79;93.21;100015.45;1590002;90;21397;-32
2021/01/25 00:33:38;;;;;;;19.40;9.60;;;;;;;2.80;93.21;100010.32;1590083;90;20952;-33
2021/01/25 00:36:08;;;;;;;17.17;9.30;;;;;;;2.81;93.16;100009.47;1590054;90;21008;-34
2021/01/25 00:38:36;;;;;;;23.85;11.10;;;;;;;2.81;93.19;100006.92;1590144;90;21008;-34
2021/01/25 00:41:06;;;;;;;22.10;10.30;;;;;;;2.81;93.26;100004.80;1590098;90;21128;-35
2021/01/25 00:43:33;;;;;;;16.27;9.75;;;;;;;2.80;93.32;100005.20;1590052;90;21071;-34
2021/01/25 00:46:02;;;;;;;18.40;9.33;;;;;;;2.83;93.38;100002.67;1590050;90;21023;-35
2021/01/25 00:48:30;;;;;;;12.78;8.43;;;;;;;2.85;93.42;99999.69;1590099;90;21538;-35
2021/01/25 00:50:58;;;;;;;16.40;8.53;;;;;;;2.88;93.47;99997.16;1590103;90;21070;-33
2021/01/25 00:53:26;;;;;;;14.03;8.70;;;;;;;2.91;93.52;99997.61;1596341;89;21247;-34
2021/01/25 00:55:54;;;;;;;11.48;8.43;;;;;;;2.93;93.60;99989.95;1599684;89;20999;-34
2021/01/25 00:58:22;;;;;;;12.40;8.28;;;;;;;2.96;93.63;99991.25;1599909;89;20998;-34
2021/01/25 01:00:50;;;;;;;11.70;7.08;;;;;;;2.97;93.67;99984.84;1599769;89;20968;-33
2021/01/25 01:03:21;;;;;;;13.40;7.35;;;;;;;3.00;93.67;99984.86;1599789;89;20960;-34
2021/01/25 01:07:20;;;;;;;14.47;8.58;;;;;;;3.09;93.79;99972.98;1816229;79;23114;-35
2021/01/25 01:09:49;;;;;;;11.45;7.87;;;;;;;3.07;93.79;99971.69;1789272;80;20927;-34
2021/01/25 01:12:19;;;;;;;10.28;7.25;;;;;;;3.10;93.73;99964.02;1789360;80;21216;-34
2021/01/25 01:14:48;;;;;;;11.88;7.40;;;;;;;3.12;93.73;99959.77;1789265;80;20995;-34
2021/01/25 01:17:17;;;;;;;9.23;6.62;;;;;;;3.16;93.77;99959.36;1789188;80;20923;-35
2021/01/25 01:19:45;;;;;;;15.25;7.40;;;;;;;3.19;93.82;99968.77;1789353;80;21560;-34
2021/01/25 01:22:13;;;;;;;9.08;6.12;;;;;;;3.21;93.84;99968.34;1789272;80;20991;-34
2021/01/25 01:24:42;;;;;;;12.25;7.22;;;;;;;3.23;93.76;99960.25;1789361;80;22523;-34
2021/01/25 01:27:10;;;;;;;12.82;7.22;;;;;;;3.24;93.75;99958.13;1789096;80;20931;-35
2021/01/25 01:29:38;;;;;;;8.75;6.40;;;;;;;3.25;93.74;99961.11;1789251;80;21085;-34
2021/01/25 01:32:07;;;;;;;9.78;6.58;;;;;;;3.24;93.74;99965.36;1789231;80;20927;-34
2021/01/25 01:34:34;;;;;;;9.85;6.65;;;;;;;3.26;93.73;99967.94;1789259;80;20971;-33
2021/01/25 01:37:03;;;;;;;10.65;6.65;;;;;;;3.27;93.66;99963.25;1789230;80;21628;-34
2021/01/25 01:39:32;;;;;;;9.68;7.17;;;;;;;3.25;93.60;99960.67;1789233;80;21050;-33
2021/01/25 01:42:02;;;;;;;10.45;7.17;;;;;;;3.25;93.60;99967.50;1789219;80;20912;-34
2021/01/25 01:44:30;;;;;;;10.30;6.55;;;;;;;3.22;93.57;99961.94;1789260;80;21533;-34
2021/01/25 01:46:58;;;;;;;9.63;7.30;;;;;;;3.22;93.58;99965.77;1789215;80;20903;-34
2021/01/25 01:49:27;;;;;;;13.85;7.28;;;;;;;3.22;93.55;99966.22;1789260;80;21449;-34
2021/01/25 01:51:57;;;;;;;13.28;7.90;;;;;;;3.20;93.47;99967.48;1758934;80;21007;-34
2021/01/25 01:54:26;;;;;;;12.23;8.00;;;;;;;3.19;93.46;99963.21;1789224;80;20955;-34
2021/01/25 01:56:56;;;;;;;14.75;8.45;;;;;;;3.19;93.48;99961.93;1789189;80;20986;-34
2021/01/25 01:59:25;;;;;;;12.37;8.33;;;;;;;3.21;93.48;99964.06;1789123;80;20963;-35
2021/01/25 02:01:53;;;;;;;13.25;7.37;;;;;;;3.22;93.49;99962.37;1789234;80;21204;-34
2021/01/25 02:04:23;;;;;;;12.53;8.00;;;;;;;3.24;93.53;99963.23;1789287;80;20986;-35
2021/01/25 02:06:51;;;;;;;11.50;8.18;;;;;;;3.25;93.59;99967.06;1779912;80;21039;-35
2021/01/25 02:09:20;;;;;;;14.90;8.75;;;;;;;3.25;93.65;99973.46;1775710;80;21010;-34
2021/01/25 02:11:48;;;;;;;12.07;8.65;;;;;;;3.27;93.65;99974.31;1775713;80;20881;-34
2021/01/25 02:14:17;;;;;;;11.30;7.17;;;;;;;3.32;93.65;99969.67;1775647;80;21196;-34
2021/01/25 02:16:44;;;;;;;14.63;8.13;;;;;;;3.35;93.67;99969.23;1775436;80;20987;-34
2021/01/25 02:19:36;;;;;;;14.18;8.93;;;;;;;3.40;93.73;99964.14;1775068;80;21066;-34
2021/01/25 02:22:37;;;;;;;19.17;8.30;;;;;;;3.46;93.93;99970.55;1774982;80;21007;-34
2021/01/25 02:25:39;;;;;;;15.40;8.60;;;;;;;3.60;94.23;99964.19;1775034;80;20964;-34
2021/01/25 02:28:07;;;;;;;11.38;7.90;;;;;;;3.78;94.43;99966.37;1775036;80;21362;-34
2021/01/25 02:30:36;;;;;;;14.13;9.70;;;;;;;3.92;94.42;99967.66;1775041;80;21126;-34
2021/01/25 02:33:04;;;;;;;12.65;8.80;;;;;;;3.99;94.46;99966.40;1775124;80;20961;-33
2021/01/25 02:35:32;;;;;;;23.77;9.68;;;;;;;4.08;94.44;99959.16;1775079;80;21027;-33
2021/01/25 02:38:00;;;;;;;20.25;9.30;;;;;;;4.14;94.31;99953.15;1775093;80;20880;-33
2021/01/25 02:40:29;;;;;;;19.95;9.83;;;;;;;4.20;94.24;99951.89;1775033;80;21188;-34
2021/01/25 02:42:59;;;;;;;19.23;9.83;;;;;;;4.28;94.18;99945.05;1774996;80;20939;-34
2021/01/25 02:45:27;;;;;;;23.62;9.63;;;;;;;4.33;94.06;99951.46;1753540;80;20955;-35
2021/01/25 02:47:55;;;;;;;16.95;9.80;;;;;;;4.36;93.98;99951.86;1774962;80;20976;-33
2021/01/25 02:50:24;;;;;;;17.80;9.08;;;;;;;4.40;93.82;99951.00;1775110;80;20975;-34
2021/01/25 02:52:51;;;;;;;20.27;10.23;;;;;;;4.42;93.73;99946.72;1775060;80;21573;-34
2021/01/25 02:55:19;;;;;;;19.10;9.75;;;;;;;4.42;93.73;99946.72;1775001;80;20900;-33
2021/01/25 02:57:47;;;;;;;17.05;9.85;;;;;;;4.43;93.28;99972.37;1775141;80;21368;-34
2021/01/25 03:00:17;;;;;;;14.45;8.78;;;;;;;4.42;93.35;99965.95;1775106;80;21054;-33
2021/01/25 03:02:45;;;;;;;28.10;9.83;;;;;;;4.42;93.35;99965.95;1775107;80;21225;-34
2021/01/25 03:05:14;;;;;;;19.20;9.18;;;;;;;4.43;93.34;99957.44;1775092;80;22658;-34
2021/01/25 03:07:42;;;;;;;27.77;10.10;;;;;;;4.44;93.35;99970.67;1780023;80;20951;-33
2021/01/25 03:10:12;;;;;;;19.82;9.93;;;;;;;4.45;93.32;99973.66;1780894;80;21050;-33
2021/01/25 03:12:40;;;;;;;15.25;9.45;;;;;;;4.45;93.29;99963.41;1780802;80;20911;-34
2021/01/25 03:15:10;;;;;;;15.70;8.65;;;;;;;4.45;93.22;99967.25;1780833;80;21003;-34
2021/01/25 03:17:39;;;;;;;15.23;9.38;;;;;;;4.44;93.23;99971.95;1753186;80;20952;-35
2021/01/25 03:20:10;;;;;;;19.95;10.80;;;;;;;4.44;93.18;99970.67;1780752;80;20924;-33
2021/01/25 03:22:38;;;;;;;15.80;8.55;;;;;;;4.42;93.14;99963.38;1780836;80;20923;-33
2021/01/25 03:25:09;;;;;;;16.50;10.30;;;;;;;4.41;93.12;99965.52;1780744;80;20935;-34
2021/01/25 03:27:37;;;;;;;18.05;10.13;;;;;;;4.38;93.02;99975.78;1780898;80;21427;-34
2021/01/25 03:30:09;;;;;;;16.55;10.30;;;;;;;4.39;92.99;99964.67;1780691;80;21235;-33
2021/01/25 03:32:42;;;;;;;18.82;10.20;;;;;;;4.39;92.99;99964.67;1780601;80;20943;-34
2021/01/25 03:35:12;;;;;;;14.73;10.25;;;;;;;4.37;93.11;99965.10;1780833;80;21605;-34
2021/01/25 03:37:40;;;;;;;20.68;10.82;;;;;;;4.36;93.11;99961.70;1780819;80;21007;-34
2021/01/25 03:40:09;;;;;;;17.92;10.43;;;;;;;4.31;93.16;99968.10;1780873;80;20868;-34
2021/01/25 03:42:38;;;;;;;14.55;9.63;;;;;;;4.29;93.23;99965.97;1780781;80;21416;-34
2021/01/25 03:45:08;;;;;;;26.17;10.60;;;;;;;4.28;93.22;99973.23;1780716;80;20971;-34
2021/01/25 03:47:35;;;;;;;20.12;10.82;;;;;;;4.22;93.24;99970.68;1780763;80;20936;-33
2021/01/25 03:50:05;;;;;;;22.22;10.18;;;;;;;4.23;93.28;99975.36;1780750;80;21391;-33
2021/01/25 03:52:33;;;;;;;19.80;9.63;;;;;;;4.20;93.32;99975.36;1780840;80;20999;-33
2021/01/25 03:55:02;;;;;;;25.50;9.88;;;;;;;4.14;93.52;99990.30;1780781;80;22817;-33
2021/01/25 03:57:30;;;;;;;30.72;10.32;;;;;;;4.14;93.52;99990.30;1780707;80;20951;-33
2021/01/25 03:59:58;;;;;;;25.23;10.32;;;;;;;4.05;93.25;99988.61;1780826;80;20924;-33
2021/01/25 04:02:27;;;;;;;24.30;10.30;;;;;;;4.05;93.25;99988.61;1780792;80;20932;-32
2021/01/25 04:04:56;;;;;;;40.55;10.68;;;;;;;4.05;93.47;100000.55;1780794;80;20979;-33
2021/01/25 04:07:25;;;;;;;18.17;8.88;;;;;;;4.03;93.47;100003.97;1780662;80;22413;-34
2021/01/25 04:09:54;;;;;;;18.27;9.78;;;;;;;4.00;93.49;100010.37;1780749;80;21298;-32
2021/01/25 04:12:22;;;;;;;26.12;9.43;;;;;;;3.96;93.54;100002.67;1780843;80;20939;-33
2021/01/25 04:14:51;;;;;;;25.90;10.65;;;;;;;3.93;93.63;100006.09;1780776;80;20924;-34
2021/01/25 04:17:19;;;;;;;27.65;10.43;;;;;;;3.91;93.68;100014.17;1780802;80;20904;-33
2021/01/25 04:19:48;;;;;;;43.83;12.15;;;;;;;3.90;93.66;100018.87;1780425;80;21345;-34
2021/01/25 04:22:16;;;;;;;40.15;12.73;;;;;;;3.84;93.82;100004.38;1780739;80;20995;-33
2021/01/25 04:24:44;;;;;;;24.72;11.03;;;;;;;3.85;93.85;100001.37;1780794;80;21015;-32
2021/01/25 04:27:13;;;;;;;41.63;12.55;;;;;;;3.85;93.85;100001.37;1780657;80;20967;-33
2021/01/25 04:29:41;;;;;;;25.90;11.90;;;;;;;3.80;93.72;99992.83;1780803;80;21034;-33
2021/01/25 04:32:10;;;;;;;28.05;12.03;;;;;;;3.78;93.67;99992.81;1780772;80;21284;-33
2021/01/25 04:34:38;;;;;;;19.02;9.88;;;;;;;3.76;93.65;99984.72;1780816;80;20899;-34
2021/01/25 04:37:05;;;;;;;22.10;10.95;;;;;;;3.73;93.71;99977.87;1780582;80;21011;-33
2021/01/25 04:39:34;;;;;;;17.10;10.10;;;;;;;3.72;93.78;99982.16;1780723;80;21039;-38
2021/01/25 04:42:02;;;;;;;17.82;11.15;;;;;;;3.70;93.82;99985.14;1780803;80;21034;-32
2021/01/25 04:44:32;;;;;;;21.55;10.82;;;;;;;3.68;93.84;99980.85;1780759;80;21372;-34
2021/01/25 04:47:01;;;;;;;16.37;10.40;;;;;;;3.67;93.85;99994.09;1780779;80;21588;-32
2021/01/25 04:49:30;;;;;;;19.57;11.08;;;;;;;3.65;93.88;99991.09;1780821;80;21451;-33
2021/01/25 04:51:58;;;;;;;27.32;10.08;;;;;;;3.64;93.92;99999.63;1753005;80;20935;-33
2021/01/25 04:54:27;;;;;;;22.32;11.25;;;;;;;3.62;93.88;99998.32;1780862;80;21014;-32
2021/01/25 04:56:57;;;;;;;16.73;11.22;;;;;;;3.60;93.89;100005.14;1780772;80;21204;-33
2021/01/25 04:59:25;;;;;;;14.98;10.23;;;;;;;3.60;93.88;100001.30;1780740;80;20955;-34
2021/01/25 05:01:53;;;;;;;21.50;9.85;;;;;;;3.58;93.89;99991.48;1780830;80;21073;-34
2021/01/25 05:04:21;;;;;;;17.98;10.53;;;;;;;3.55;93.89;99996.60;1780785;80;20936;-32
2021/01/25 05:06:49;;;;;;;17.87;10.48;;;;;;;3.53;93.88;99989.34;1779596;80;20979;-35
2021/01/25 05:09:17;;;;;;;13.15;9.98;;;;;;;3.52;93.86;99983.80;1774982;80;21201;-34
2021/01/25 05:12:02;;;;;;;14.18;9.53;;;;;;;3.51;93.88;99983.38;1774939;80;21022;-33
2021/01/25 05:14:41;;;;;;;19.60;9.80;;;;;;;3.45;93.89;99987.63;1775159;80;21002;-32
2021/01/25 05:17:13;;;;;;;16.55;9.35;;;;;;;3.43;93.90;99998.28;1774943;80;20877;-34
2021/01/25 05:19:44;;;;;;;14.10;8.85;;;;;;;3.43;93.93;99997.41;1774989;80;21035;-34
2021/01/25 05:22:16;;;;;;;16.67;9.30;;;;;;;3.41;93.92;99999.12;1774980;80;21203;-34
2021/01/25 05:24:53;;;;;;;15.35;9.45;;;;;;;3.41;93.99;100008.94;1775075;80;21534;-34
2021/01/25 05:27:31;;;;;;;15.10;8.63;;;;;;;3.41;93.98;100010.63;1774912;80;20934;-34
2021/01/25 05:30:10;;;;;;;11.35;7.70;;;;;;;3.38;94.01;100002.95;1774501;80;21431;-35
2021/01/25 05:32:49;;;;;;;13.98;8.75;;;;;;;3.37;94.06;100005.91;1775068;80;21482;-35
2021/01/25 05:35:19;;;;;;;13.50;9.43;;;;;;;3.37;94.09;100019.15;1775026;80;21553;-34
2021/01/25 05:37:59;;;;;;;12.63;8.75;;;;;;;3.36;94.09;100015.72;1774900;80;20964;-34
2021/01/25 05:40:28;;;;;;;16.42;8.30;;;;;;;3.35;94.07;100014.02;1774351;80;20944;-34
2021/01/25 05:42:57;;;;;;;13.10;8.13;;;;;;;3.34;94.10;100019.98;1774939;80;20983;-34
2021/01/25 05:45:29;;;;;;;12.55;8.48;;;;;;;3.37;94.14;100020.43;1774931;80;20962;-34
2021/01/25 05:47:58;;;;;;;13.53;7.35;;;;;;;3.33;94.23;100018.27;1774954;80;22365;-34
2021/01/25 05:50:36;;;;;;;13.48;8.23;;;;;;;3.33;94.25;100029.78;1774989;80;21427;-34
2021/01/25 05:53:11;;;;;;;12.50;8.43;;;;;;;3.34;94.25;100018.70;1774945;80;20995;-34
2021/01/25 05:55:40;;;;;;;10.72;7.78;;;;;;;3.37;94.21;100015.31;1775040;80;21019;-33
2021/01/25 05:58:09;;;;;;;14.07;7.92;;;;;;;3.36;94.26;100022.12;1775137;80;20956;-34
2021/01/25 06:00:38;;;;;;;12.33;7.42;;;;;;;3.37;94.31;100022.98;1774992;80;21140;-33
2021/01/25 06:03:07;;;;;;;13.95;7.83;;;;;;;3.38;94.30;100016.58;1775064;80;20975;-35
2021/01/25 06:05:40;;;;;;;12.45;8.15;;;;;;;3.41;94.33;100024.70;1775134;80;20984;-34
2021/01/25 06:08:27;;;;;;;16.87;8.65;;;;;;;3.41;94.38;100023.02;1771815;80;21007;-34
2021/01/25 06:11:18;;;;;;;14.23;7.12;;;;;;;3.40;94.38;100009.76;1774824;80;20955;-36
2021/01/25 06:16:24;;;;;;;17.20;8.55;;;;;;;3.47;94.44;100009.81;1812883;77;22042;-34
2021/01/25 06:19:01;;;;;;;14.80;7.62;;;;;;;3.42;94.49;100022.17;1784259;80;20982;-33
2021/01/25 06:21:33;;;;;;;16.17;7.60;;;;;;;3.42;94.50;100026.01;1783987;80;21382;-33
2021/01/25 06:24:02;;;;;;;16.15;9.20;;;;;;;3.43;94.49;100021.73;1784182;80;20987;-34
2021/01/25 06:26:31;;;;;;;17.70;8.20;;;;;;;3.44;94.50;100015.76;1752659;80;20987;-34
2021/01/25 06:29:05;;;;;;;15.20;7.75;;;;;;;3.45;94.48;100016.19;1784241;80;20896;-35
2021/01/25 06:31:40;;;;;;;16.65;7.90;;;;;;;3.42;94.42;100019.61;1784180;80;20951;-37
2021/01/25 06:34:10;;;;;;;;;;;;;;;3.43;94.46;100020.03;1786997;80;21324;-33
2021/01/25 06:36:40;;;;;;;14.45;8.30;;;;;;;3.45;94.44;100016.19;1784296;80;20366;-34
2021/01/25 06:39:08;;;;;;;12.07;7.85;;;;;;;3.41;94.39;100023.02;1784217;80;20907;-33
2021/01/25 06:41:38;;;;;;;14.40;8.53;;;;;;;3.42;94.41;100028.97;1784166;80;20907;-33
2021/01/25 06:44:07;;;;;;;12.93;7.62;;;;;;;3.42;94.40;100022.17;1784271;80;20908;-33
2021/01/25 06:46:39;;;;;;;13.58;8.10;;;;;;;3.43;94.35;100021.31;1784365;80;21350;-32
2021/01/25 06:49:09;;;;;;;10.35;7.67;;;;;;;3.42;94.34;100023.86;1784170;80;20935;-33
2021/01/25 06:51:41;;;;;;;16.55;8.23;;;;;;;3.43;94.30;100018.76;1784239;79;20880;-35
2021/01/25 06:54:11;;;;;;;16.90;8.35;;;;;;;3.42;94.31;100006.81;1784146;80;21146;-34
2021/01/25 06:56:47;;;;;;;12.58;8.43;;;;;;;3.43;94.23;100005.96;1754887;80;21011;-34
2021/01/25 06:59:15;;;;;;;15.48;8.48;;;;;;;3.43;94.24;99996.14;1784014;80;21321;-34
2021/01/25 07:01:43;;;;;;;13.03;9.38;;;;;;;3.43;94.21;99993.16;1724857;80;21034;-33
2021/01/25 07:04:14;;;;;;;10.72;7.90;;;;;;;3.44;94.23;99997.84;1701473;80;21153;-33
2021/01/25 07:06:53;;;;;;;11.75;7.25;;;;;;;3.48;94.21;100001.28;1784229;80;20971;-33
2021/01/25 07:09:32;;;;;;;16.48;7.80;;;;;;;3.51;94.18;100007.69;1784206;79;21512;-35
2021/01/25 07:12:04;;;;;;;12.25;8.30;;;;;;;3.53;94.20;100007.27;1784314;79;21186;-33
2021/01/25 07:14:32;;;;;;;9.70;7.33;;;;;;;3.53;94.20;100007.27;1783397;80;21050;-34
2021/01/25 07:17:00;;;;;;;10.72;7.62;;;;;;;3.56;94.13;99998.31;1776404;80;21019;-34
2021/01/25 07:19:29;;;;;;;10.08;7.50;;;;;;;3.57;94.12;100001.30;1776505;80;20916;-33
2021/01/25 07:21:57;;;;;;;9.55;7.53;;;;;;;3.61;94.08;100003.45;1776574;80;20907;-33
2021/01/25 07:24:27;;;;;;;11.53;8.00;;;;;;;3.63;94.08;99994.91;1776459;80;21421;-33
2021/01/25 07:26:59;;;;;;;13.45;9.03;;;;;;;3.63;94.07;99991.52;1776011;80;20951;-33
2021/01/25 07:29:30;;;;;;;13.30;8.10;;;;;;;3.65;94.01;99995.77;1775859;80;21011;-34
2021/01/25 07:31:59;;;;;;;13.30;8.73;;;;;;;3.67;94.03;99995.38;1775770;80;20920;-35
2021/01/25 07:34:33;;;;;;;15.45;9.68;;;;;;;3.70;94.00;99995.78;1775953;80;20864;-32
2021/01/25 07:36:58;;;;;;;18.85;9.90;;;;;;;3.70;93.95;99999.63;1775465;80;23156;-33
2021/01/25 07:39:27;;;;;;;14.47;9.45;;;;;;;3.68;93.86;100008.60;1775858;80;21423;-34
2021/01/25 07:41:56;;;;;;;18.45;10.28;;;;;;;3.67;93.77;100004.33;1775974;80;21407;-34
2021/01/25 07:44:26;;;;;;;18.20;10.68;;;;;;;3.66;93.70;100000.03;1775883;80;21007;-36
2021/01/25 07:47:03;;;;;;;20.32;10.80;;;;;;;3.65;93.67;99996.20;1775909;80;20983;-34
2021/01/25 07:49:32;;;;;;;17.50;10.50;;;;;;;3.64;93.71;100000.45;1775883;80;21388;-35
2021/01/25 07:52:00;;;;;;;18.20;10.43;;;;;;;3.65;93.69;100003.89;1775861;80;21069;-33
2021/01/25 07:54:31;;;;;;;18.52;9.55;;;;;;;3.65;93.62;100009.00;1775890;80;21023;-33
2021/01/25 07:56:59;;;;;;;15.80;10.63;;;;;;;3.64;93.63;100006.86;1775820;80;21039;-34
2021/01/25 07:59:35;;;;;;;22.30;12.53;;;;;;;3.65;93.69;100010.29;1775895;80;20932;-33
2021/01/25 08:02:07;;;;;;;21.87;11.20;;;;;;;3.66;93.74;100012.83;1776059;79;21340;-34
2021/01/25 08:04:38;;;;;;;19.52;10.03;;;;;;;3.67;93.58;100005.61;1775847;80;20947;-33
2021/01/25 08:07:05;;;;;;;14.58;9.28;;;;;;;3.67;93.58;100005.61;1775842;80;20986;-33
2021/01/25 08:09:37;;;;;;;15.28;10.15;;;;;;;3.67;93.62;99998.34;1775910;80;20983;-32
2021/01/25 08:12:05;;;;;;;14.45;9.58;;;;;;;3.65;93.63;100012.41;1775974;80;20983;-33
2021/01/25 08:14:37;;;;;;;17.50;10.80;;;;;;;3.66;93.64;100005.59;1775015;80;21136;-32
2021/01/25 08:17:16;;;;;;;16.82;10.23;;;;;;;3.69;93.65;100003.91;1775777;80;20967;-34
2021/01/25 08:19:50;;;;;;;17.10;11.08;;;;;;;3.69;93.60;99997.51;1745946;80;21510;-34
2021/01/25 08:22:21;;;;;;;16.87;10.78;;;;;;;3.71;93.55;100000.92;1775947;80;20900;-34
2021/01/25 08:24:59;;;;;;;18.00;11.03;;;;;;;3.72;93.62;99992.39;1775658;80;20924;-33
2021/01/25 08:27:27;;;;;;;17.00;8.98;;;;;;;3.78;93.70;99998.38;1775984;80;22295;-34
2021/01/25 08:30:13;;;;;;;19.07;10.98;;;;;;;3.85;93.78;100003.92;1775772;80;20947;-32
2021/01/25 08:32:46;;;;;;;13.60;8.83;;;;;;;3.91;93.77;100001.38;1775897;80;21042;-33
2021/01/25 08:35:16;;;;;;;17.42;10.28;;;;;;;4.00;93.79;99996.69;1775852;80;21509;-35
2021/01/25 08:37:45;;;;;;;23.32;11.85;;;;;;;4.08;93.82;99991.17;1743427;80;21102;-34
2021/01/25 08:40:20;;;;;;;22.17;10.10;;;;;;;4.15;93.86;99985.60;1775915;80;22695;-33
2021/01/25 08:42:47;;;;;;;14.53;9.05;;;;;;;4.25;93.88;99981.34;1775945;80;21467;-33
2021/01/25 08:45:28;;;;;;;17.85;9.45;;;;;;;4.34;93.77;99974.08;1775851;80;20979;-34
2021/01/25 08:48:07;;;;;;;18.48;11.15;;;;;;;4.39;93.71;99969.39;1775868;80;20868;-33
2021/01/25 08:50:36;;;;;;;16.10;9.48;;;;;;;4.49;93.76;99959.98;1775964;80;21607;-33
2021/01/25 08:53:10;;;;;;;16.85;8.88;;;;;;;4.49;93.76;99959.98;1775811;80;22084;-33
2021/01/25 08:55:43;;;;;;;16.93;9.48;;;;;;;4.51;93.52;99949.70;1775740;80;20939;-34
2021/01/25 08:58:27;;;;;;;17.70;9.13;;;;;;;4.57;93.50;99955.69;1775812;80;21489;-34
2021/01/25 09:00:55;;;;;;;16.75;9.23;;;;;;;4.62;93.57;99948.00;1775752;80;21189;-33
2021/01/25 09:03:27;;;;;;;15.95;9.63;;;;;;;4.71;93.55;99947.13;1775909;80;20971;-33
2021/01/25 09:05:55;;;;;;;17.50;9.38;;;;;;;4.79;93.45;99933.84;1775794;80;21300;-33
2021/01/25 09:08:25;;;;;;;19.07;9.55;;;;;;;4.84;93.32;99929.55;1775578;80;20939;-32
2021/01/25 09:10:55;;;;;;;22.27;10.82;;;;;;;4.93;93.24;99920.97;1775823;80;20983;-34
2021/01/25 09:13:23;;;;;;;17.82;9.58;;;;;;;5.00;93.07;99925.66;1710790;80;20982;-34
2021/01/25 09:15:53;;;;;;;14.10;9.18;;;;;;;5.04;92.73;99923.50;1710179;83;21485;-33
2021/01/25 09:18:20;;;;;;;16.15;10.40;;;;;;;5.11;92.69;99904.64;1741341;82;21378;-33
2021/01/25 09:20:52;;;;;;;18.20;10.08;;;;;;;5.11;92.69;99904.64;1741386;81;20939;-32
2021/01/25 09:23:19;;;;;;;16.45;9.95;;;;;;;5.10;92.18;99912.36;1723356;83;20955;-33
2021/01/25 09:25:47;;;;;;;16.48;8.70;;;;;;;5.08;92.02;99907.23;1775821;80;21082;-32
2021/01/25 09:28:16;;;;;;;17.73;8.90;;;;;;;5.13;92.11;99902.92;1775834;80;20947;-32
2021/01/25 09:30:44;;;;;;;14.87;8.58;;;;;;;5.22;92.02;99897.34;1775901;80;22744;-33
2021/01/25 09:33:12;;;;;;;16.35;8.93;;;;;;;5.26;91.91;99897.30;1775745;80;20995;-34
2021/01/25 09:35:40;;;;;;;15.32;7.83;;;;;;;5.30;91.82;99905.42;1775861;80;21577;-34
2021/01/25 09:38:08;;;;;;;17.92;8.48;;;;;;;5.35;91.57;99908.39;1745641;80;20931;-32
2021/01/25 09:40:36;;;;;;;17.80;9.80;;;;;;;5.38;91.37;99900.22;1775817;80;20908;-33
2021/01/25 09:43:03;;;;;;;17.75;9.35;;;;;;;5.39;91.24;99904.94;1775909;80;22185;-34
2021/01/25 09:45:31;;;;;;;17.90;9.08;;;;;;;5.40;91.15;99891.24;1775708;80;21006;-33
2021/01/25 09:48:00;;;;;;;17.95;9.05;;;;;;;5.43;91.13;99898.50;1775715;80;20998;-34
2021/01/25 09:50:28;;;;;;;20.27;10.75;;;;;;;5.49;90.83;99891.17;1775882;80;20920;-34
2021/01/25 09:52:57;;;;;;;21.23;11.10;;;;;;;5.40;90.30;99863.01;1775795;80;20908;-33
2021/01/25 09:55:25;;;;;;;26.40;11.18;;;;;;;5.40;90.30;99863.01;1775806;80;21178;-33
2021/01/25 09:57:52;;;;;;;19.40;9.13;;;;;;;5.40;89.57;99843.76;1775722;80;21038;-33
2021/01/25 10:00:23;;;;;;;19.98;9.35;;;;;;;5.40;89.57;99843.76;1775775;80;20947;-34
2021/01/25 10:02:51;;;;;;;19.73;10.70;;;;;;;5.39;89.39;99851.88;1775850;80;21007;-33
2021/01/25 10:05:20;;;;;;;22.85;10.60;;;;;;;5.38;89.45;99855.75;1775824;80;20872;-33
2021/01/25 10:07:49;;;;;;;22.70;10.15;;;;;;;5.41;89.29;99848.86;1775958;80;21206;-33
2021/01/25 10:10:17;;;;;;;22.42;10.95;;;;;;;5.44;89.33;99859.14;1775818;80;20948;-33
2021/01/25 10:12:46;;;;;;;22.55;11.08;;;;;;;5.48;89.34;99858.66;1775811;80;20964;-33
2021/01/25 10:15:15;;;;;;;27.82;12.85;;;;;;;5.49;89.16;99857.80;1775718;80;21585;-33
2021/01/25 10:17:44;;;;;;;21.60;11.53;;;;;;;5.53;88.82;99843.23;1771642;80;21171;-33
2021/01/25 10:20:14;;;;;;;18.75;10.68;;;;;;;5.56;88.83;99846.64;1771397;81;21137;-35
2021/01/25 10:22:44;;;;;;;24.75;10.20;;;;;;;5.61;88.77;99844.02;1771511;81;21542;-32
2021/01/25 10:25:13;;;;;;;22.45;10.88;;;;;;;5.69;88.78;99826.86;1771442;81;20948;-32
2021/01/25 10:27:41;;;;;;;19.07;10.32;;;;;;;5.75;88.74;99839.64;1771377;81;20975;-33
2021/01/25 10:30:11;;;;;;;26.60;11.40;;;;;;;5.80;88.41;99840.86;1771331;81;20896;-32
2021/01/25 10:32:39;;;;;;;20.92;10.08;;;;;;;5.90;88.22;99821.08;1771419;81;21537;-33
2021/01/25 10:35:11;;;;;;;20.15;9.15;;;;;;;5.97;87.66;99820.59;1771238;81;20920;-32
2021/01/25 10:37:41;;;;;;;17.98;9.18;;;;;;;6.04;87.61;99811.98;1771505;81;20975;-35
2021/01/25 10:40:10;;;;;;;21.30;10.82;;;;;;;6.10;87.67;99808.09;1771386;81;20904;-33
2021/01/25 10:42:38;;;;;;;19.80;9.83;;;;;;;6.22;87.76;99811.39;1771527;81;20944;-33
2021/01/25 10:45:08;;;;;;;22.93;9.08;;;;;;;6.36;87.46;99799.25;1771409;81;21186;-33
2021/01/25 10:47:37;;;;;;;22.85;10.48;;;;;;;6.47;86.98;99797.39;1771474;81;21471;-33
2021/01/25 10:50:10;;;;;;;24.27;10.45;;;;;;;6.54;86.38;99792.16;1771303;79;21009;-33
2021/01/25 10:52:40;;;;;;;22.58;10.23;;;;;;;6.52;85.69;99793.48;1770796;81;21153;-33
2021/01/25 10:55:09;;;;;;;16.40;8.73;;;;;;;6.51;85.88;99780.63;1771303;81;21459;-33
2021/01/25 10:57:39;;;;;;;18.70;9.73;;;;;;;6.55;85.96;99785.73;1771493;81;22295;-33
2021/01/25 11:00:19;;;;;;;22.32;10.10;;;;;;;6.58;85.83;99777.14;1771263;81;20960;-33
2021/01/25 11:02:47;;;;;;;17.52;9.28;;;;;;;6.61;85.52;99772.78;1771558;81;20994;-33
2021/01/25 11:05:19;;;;;;;21.90;9.03;;;;;;;6.64;85.59;99766.77;1771649;81;20936;-34
2021/01/25 11:07:47;;;;;;;20.62;9.55;;;;;;;6.71;85.35;99762.39;1771522;81;21518;-34
2021/01/25 11:10:22;;;;;;;24.98;10.30;;;;;;;6.72;85.26;99753.35;1771514;81;20983;-33
2021/01/25 11:12:50;;;;;;;21.65;9.33;;;;;;;6.74;85.21;99743.05;1771569;81;20940;-34
2021/01/25 11:15:19;;;;;;;25.65;9.65;;;;;;;6.74;85.18;99737.91;1771510;81;21551;-33
2021/01/25 11:17:47;;;;;;;19.48;9.10;;;;;;;6.79;85.11;99742.97;1771436;80;20963;-33
2021/01/25 11:20:16;;;;;;;15.78;8.78;;;;;;;6.88;84.91;99734.69;1771496;81;21522;-33
2021/01/25 11:22:44;;;;;;;22.17;9.70;;;;;;;6.93;84.96;99738.48;1771583;81;21367;-35
2021/01/25 11:25:13;;;;;;;18.00;9.13;;;;;;;6.93;85.01;99734.63;1771389;81;21453;-35
2021/01/25 11:27:40;;;;;;;18.25;8.10;;;;;;;6.98;84.91;99730.25;1771505;81;21515;-34
2021/01/25 11:30:10;;;;;;;21.25;7.87;;;;;;;6.92;84.83;99739.36;1771459;81;20880;-34
2021/01/25 11:32:38;;;;;;;18.70;8.88;;;;;;;6.87;85.02;99757.43;1771471;79;21026;-33
2021/01/25 11:35:08;;;;;;;17.35;8.45;;;;;;;6.85;85.13;99765.61;1771519;81;21148;-34
2021/01/25 11:37:36;;;;;;;18.60;8.25;;;;;;;6.82;85.21;99759.22;1771423;79;20896;-34
2021/01/25 11:40:07;;;;;;;17.20;7.42;;;;;;;6.79;85.00;99750.27;1771513;81;20995;-34
2021/01/25 11:42:35;;;;;;;12.58;6.87;;;;;;;6.76;85.13;99750.31;1771527;81;20975;-33
2021/01/25 11:45:06;;;;;;;14.87;7.97;;;;;;;6.73;85.15;99766.63;1771533;80;20999;-34
2021/01/25 11:47:34;;;;;;;23.65;7.58;;;;;;;6.69;84.98;99752.11;1771576;80;21191;-39